sensor_id;sensor_type;location;lat;lon;timestamp;P1;durP1;ratioP1;P2;durP2;ratioP2
35324;SDS011;35135;47.510;19.036;2022-12-31T00:00:55;9.80;;;8.80;;
35324;SDS011;35135;47.510;19.036;2022-12-31T00:03:21;12.93;;;9.23;;
35324;SDS011;35135;47.510;19.036;2022-12-31T00:05:46;11.05;;;9.75;;
35324;SDS011;35135;47.510;19.036;2022-12-31T00:08:12;10.73;;;9.63;;
35324;SDS011;35135;47.510;19.036;2022-12-31T00:10:37;10.52;;;9.43;;
35324;SDS011;35135;47.510;19.036;2022-12-31T00:13:06;12.43;;;9.77;;
35324;SDS011;35135;47.510;19.036;2022-12-31T00:15:33;11.43;;;9.75;;
35324;SDS011;35135;47.510;19.036;2022-12-31T00:17:59;11.23;;;9.88;;
35324;SDS011;35135;47.510;19.036;2022-12-31T00:20:24;10.68;;;9.52;;
35324;SDS011;35135;47.510;19.036;2022-12-31T00:22:50;10.93;;;9.23;;
35324;SDS011;35135;47.510;19.036;2022-12-31T00:25:16;11.70;;;10.00;;
35324;SDS011;35135;47.510;19.036;2022-12-31T00:27:42;10.48;;;9.13;;
35324;SDS011;35135;47.510;19.036;2022-12-31T00:30:08;11.02;;;9.65;;
35324;SDS011;35135;47.510;19.036;2022-12-31T00:32:34;11.07;;;9.73;;
35324;SDS011;35135;47.510;19.036;2022-12-31T00:35:00;11.57;;;9.90;;
35324;SDS011;35135;47.510;19.036;2022-12-31T00:37:25;10.40;;;9.30;;
35324;SDS011;35135;47.510;19.036;2022-12-31T00:39:51;11.60;;;9.98;;
35324;SDS011;35135;47.510;19.036;2022-12-31T00:42:17;13.00;;;9.63;;
35324;SDS011;35135;47.510;19.036;2022-12-31T00:44:42;11.23;;;9.27;;
35324;SDS011;35135;47.510;19.036;2022-12-31T00:47:08;12.52;;;10.18;;
35324;SDS011;35135;47.510;19.036;2022-12-31T00:49:34;11.85;;;9.80;;
35324;SDS011;35135;47.510;19.036;2022-12-31T00:51:59;10.90;;;9.15;;
35324;SDS011;35135;47.510;19.036;2022-12-31T00:54:25;10.68;;;8.90;;
35324;SDS011;35135;47.510;19.036;2022-12-31T00:56:51;10.55;;;9.45;;
35324;SDS011;35135;47.510;19.036;2022-12-31T00:59:16;10.32;;;9.02;;
35324;SDS011;35135;47.510;19.036;2022-12-31T01:01:42;10.90;;;9.50;;
35324;SDS011;35135;47.510;19.036;2022-12-31T01:04:12;10.85;;;9.75;;
35324;SDS011;35135;47.510;19.036;2022-12-31T01:06:39;10.30;;;9.20;;
35324;SDS011;35135;47.510;19.036;2022-12-31T01:09:06;11.98;;;10.52;;
35324;SDS011;35135;47.510;19.036;2022-12-31T01:11:32;10.88;;;9.65;;
35324;SDS011;35135;47.510;19.036;2022-12-31T01:14:09;12.15;;;9.60;;
35324;SDS011;35135;47.510;19.036;2022-12-31T01:16:39;11.25;;;9.65;;
35324;SDS011;35135;47.510;19.036;2022-12-31T01:19:08;11.30;;;9.70;;
35324;SDS011;35135;47.510;19.036;2022-12-31T01:21:37;11.60;;;10.30;;
35324;SDS011;35135;47.510;19.036;2022-12-31T01:24:05;11.02;;;9.63;;
35324;SDS011;35135;47.510;19.036;2022-12-31T01:26:31;11.15;;;10.00;;
35324;SDS011;35135;47.510;19.036;2022-12-31T01:28:57;11.63;;;9.70;;
35324;SDS011;35135;47.510;19.036;2022-12-31T01:31:23;12.15;;;9.80;;
35324;SDS011;35135;47.510;19.036;2022-12-31T01:33:49;11.52;;;9.48;;
35324;SDS011;35135;47.510;19.036;2022-12-31T01:36:17;11.45;;;9.55;;
35324;SDS011;35135;47.510;19.036;2022-12-31T01:38:47;10.60;;;9.50;;
35324;SDS011;35135;47.510;19.036;2022-12-31T01:41:15;11.90;;;9.75;;
35324;SDS011;35135;47.510;19.036;2022-12-31T01:43:48;10.05;;;8.95;;
35324;SDS011;35135;47.510;19.036;2022-12-31T01:46:22;10.38;;;9.27;;
35324;SDS011;35135;47.510;19.036;2022-12-31T01:48:56;10.40;;;9.00;;
35324;SDS011;35135;47.510;19.036;2022-12-31T01:51:26;10.63;;;9.52;;
35324;SDS011;35135;47.510;19.036;2022-12-31T01:53:56;10.88;;;8.98;;
35324;SDS011;35135;47.510;19.036;2022-12-31T01:56:23;11.15;;;9.27;;
35324;SDS011;35135;47.510;19.036;2022-12-31T01:58:49;10.55;;;9.10;;
35324;SDS011;35135;47.510;19.036;2022-12-31T02:01:20;11.27;;;9.93;;
35324;SDS011;35135;47.510;19.036;2022-12-31T02:03:52;10.60;;;9.50;;
35324;SDS011;35135;47.510;19.036;2022-12-31T02:06:23;11.32;;;9.50;;
35324;SDS011;35135;47.510;19.036;2022-12-31T02:08:55;10.98;;;8.77;;
35324;SDS011;35135;47.510;19.036;2022-12-31T02:11:26;10.63;;;9.20;;
35324;SDS011;35135;47.510;19.036;2022-12-31T02:13:59;10.30;;;9.20;;
35324;SDS011;35135;47.510;19.036;2022-12-31T02:16:38;10.77;;;9.68;;
35324;SDS011;35135;47.510;19.036;2022-12-31T02:22:19;11.25;;;8.95;;
35324;SDS011;35135;47.510;19.036;2022-12-31T02:30:21;11.32;;;9.35;;
35324;SDS011;35135;47.510;19.036;2022-12-31T02:35:38;10.07;;;8.93;;
35324;SDS011;35135;47.510;19.036;2022-12-31T02:38:12;11.07;;;9.52;;
35324;SDS011;35135;47.510;19.036;2022-12-31T02:40:45;10.80;;;9.70;;
35324;SDS011;35135;47.510;19.036;2022-12-31T02:43:12;11.43;;;10.20;;
35324;SDS011;35135;47.510;19.036;2022-12-31T02:45:46;12.38;;;9.50;;
35324;SDS011;35135;47.510;19.036;2022-12-31T02:48:27;10.85;;;9.40;;
35324;SDS011;35135;47.510;19.036;2022-12-31T02:54:10;10.32;;;8.90;;
35324;SDS011;35135;47.510;19.036;2022-12-31T02:56:48;10.70;;;9.55;;
35324;SDS011;35135;47.510;19.036;2022-12-31T02:59:27;10.35;;;9.20;;
35324;SDS011;35135;47.510;19.036;2022-12-31T03:02:20;11.95;;;9.95;;
35324;SDS011;35135;47.510;19.036;2022-12-31T03:04:51;10.88;;;9.45;;
35324;SDS011;35135;47.510;19.036;2022-12-31T03:07:20;10.73;;;9.63;;
35324;SDS011;35135;47.510;19.036;2022-12-31T03:09:48;11.70;;;9.88;;
35324;SDS011;35135;47.510;19.036;2022-12-31T03:12:14;10.55;;;9.13;;
35324;SDS011;35135;47.510;19.036;2022-12-31T03:14:59;9.85;;;8.85;;
35324;SDS011;35135;47.510;19.036;2022-12-31T03:17:26;11.90;;;9.57;;
35324;SDS011;35135;47.510;19.036;2022-12-31T03:19:51;10.77;;;9.18;;
35324;SDS011;35135;47.510;19.036;2022-12-31T03:22:37;10.50;;;9.40;;
35324;SDS011;35135;47.510;19.036;2022-12-31T03:25:07;10.30;;;8.90;;
35324;SDS011;35135;47.510;19.036;2022-12-31T03:27:51;11.38;;;9.88;;
35324;SDS011;35135;47.510;19.036;2022-12-31T03:30:18;9.80;;;8.68;;
35324;SDS011;35135;47.510;19.036;2022-12-31T03:32:45;11.20;;;9.32;;
35324;SDS011;35135;47.510;19.036;2022-12-31T03:35:12;10.98;;;8.77;;
35324;SDS011;35135;47.510;19.036;2022-12-31T03:37:40;11.02;;;9.73;;
35324;SDS011;35135;47.510;19.036;2022-12-31T03:40:07;10.20;;;8.95;;
35324;SDS011;35135;47.510;19.036;2022-12-31T03:42:34;9.18;;;8.27;;
35324;SDS011;35135;47.510;19.036;2022-12-31T03:45:00;12.07;;;9.35;;
35324;SDS011;35135;47.510;19.036;2022-12-31T03:47:25;11.13;;;9.85;;
35324;SDS011;35135;47.510;19.036;2022-12-31T03:49:51;10.15;;;8.65;;
35324;SDS011;35135;47.510;19.036;2022-12-31T03:52:17;9.70;;;8.50;;
35324;SDS011;35135;47.510;19.036;2022-12-31T03:54:43;11.38;;;9.30;;
35324;SDS011;35135;47.510;19.036;2022-12-31T03:57:08;12.90;;;9.23;;
35324;SDS011;35135;47.510;19.036;2022-12-31T03:59:34;10.75;;;9.65;;
35324;SDS011;35135;47.510;19.036;2022-12-31T04:02:00;11.50;;;9.73;;
35324;SDS011;35135;47.510;19.036;2022-12-31T04:04:26;11.35;;;9.63;;
35324;SDS011;35135;47.510;19.036;2022-12-31T04:06:51;12.38;;;9.98;;
35324;SDS011;35135;47.510;19.036;2022-12-31T04:09:17;11.07;;;9.85;;
35324;SDS011;35135;47.510;19.036;2022-12-31T04:11:43;11.07;;;9.32;;
35324;SDS011;35135;47.510;19.036;2022-12-31T04:14:09;12.73;;;10.38;;
35324;SDS011;35135;47.510;19.036;2022-12-31T04:16:35;11.85;;;9.85;;
35324;SDS011;35135;47.510;19.036;2022-12-31T04:19:01;10.73;;;9.40;;
35324;SDS011;35135;47.510;19.036;2022-12-31T04:21:27;11.10;;;9.88;;
35324;SDS011;35135;47.510;19.036;2022-12-31T04:23:53;11.07;;;9.90;;
35324;SDS011;35135;47.510;19.036;2022-12-31T04:26:18;11.20;;;9.70;;
35324;SDS011;35135;47.510;19.036;2022-12-31T04:28:44;11.50;;;10.27;;
35324;SDS011;35135;47.510;19.036;2022-12-31T04:31:10;12.70;;;10.38;;
35324;SDS011;35135;47.510;19.036;2022-12-31T04:33:35;11.40;;;9.48;;
35324;SDS011;35135;47.510;19.036;2022-12-31T04:36:04;11.35;;;9.82;;
35324;SDS011;35135;47.510;19.036;2022-12-31T04:38:31;12.88;;;10.93;;
35324;SDS011;35135;47.510;19.036;2022-12-31T04:40:58;11.30;;;9.73;;
35324;SDS011;35135;47.510;19.036;2022-12-31T04:43:42;11.32;;;9.80;;
35324;SDS011;35135;47.510;19.036;2022-12-31T04:46:09;11.57;;;9.68;;
35324;SDS011;35135;47.510;19.036;2022-12-31T04:48:35;11.27;;;10.07;;
35324;SDS011;35135;47.510;19.036;2022-12-31T04:51:01;10.85;;;9.70;;
35324;SDS011;35135;47.510;19.036;2022-12-31T04:53:27;12.75;;;9.32;;
35324;SDS011;35135;47.510;19.036;2022-12-31T04:55:53;11.93;;;10.45;;
35324;SDS011;35135;47.510;19.036;2022-12-31T04:58:19;12.25;;;9.90;;
35324;SDS011;35135;47.510;19.036;2022-12-31T05:00:45;10.55;;;9.07;;
35324;SDS011;35135;47.510;19.036;2022-12-31T05:03:14;11.35;;;9.60;;
35324;SDS011;35135;47.510;19.036;2022-12-31T05:05:40;11.07;;;9.48;;
35324;SDS011;35135;47.510;19.036;2022-12-31T05:08:09;11.98;;;10.02;;
35324;SDS011;35135;47.510;19.036;2022-12-31T05:10:36;12.00;;;10.20;;
35324;SDS011;35135;47.510;19.036;2022-12-31T05:13:05;11.68;;;10.05;;
35324;SDS011;35135;47.510;19.036;2022-12-31T05:15:31;10.18;;;8.90;;
35324;SDS011;35135;47.510;19.036;2022-12-31T05:17:56;11.15;;;9.50;;
35324;SDS011;35135;47.510;19.036;2022-12-31T05:20:22;11.75;;;9.20;;
35324;SDS011;35135;47.510;19.036;2022-12-31T05:22:48;11.75;;;9.15;;
35324;SDS011;35135;47.510;19.036;2022-12-31T05:25:13;12.95;;;10.32;;
35324;SDS011;35135;47.510;19.036;2022-12-31T05:27:39;10.82;;;9.60;;
35324;SDS011;35135;47.510;19.036;2022-12-31T05:30:05;10.38;;;8.90;;
35324;SDS011;35135;47.510;19.036;2022-12-31T05:32:31;11.32;;;9.52;;
35324;SDS011;35135;47.510;19.036;2022-12-31T05:34:57;11.98;;;9.68;;
35324;SDS011;35135;47.510;19.036;2022-12-31T05:37:24;10.85;;;8.82;;
35324;SDS011;35135;47.510;19.036;2022-12-31T05:39:51;12.30;;;9.52;;
35324;SDS011;35135;47.510;19.036;2022-12-31T05:42:17;12.43;;;9.40;;
35324;SDS011;35135;47.510;19.036;2022-12-31T05:44:42;11.80;;;9.65;;
35324;SDS011;35135;47.510;19.036;2022-12-31T05:47:08;11.90;;;9.35;;
35324;SDS011;35135;47.510;19.036;2022-12-31T05:49:34;10.63;;;9.40;;
35324;SDS011;35135;47.510;19.036;2022-12-31T05:51:59;11.60;;;9.95;;
35324;SDS011;35135;47.510;19.036;2022-12-31T05:54:25;13.05;;;9.75;;
35324;SDS011;35135;47.510;19.036;2022-12-31T05:56:51;11.63;;;9.75;;
35324;SDS011;35135;47.510;19.036;2022-12-31T05:59:16;12.93;;;10.25;;
35324;SDS011;35135;47.510;19.036;2022-12-31T06:01:42;12.63;;;10.50;;
35324;SDS011;35135;47.510;19.036;2022-12-31T06:04:08;12.73;;;10.18;;
35324;SDS011;35135;47.510;19.036;2022-12-31T06:06:33;12.63;;;10.25;;
35324;SDS011;35135;47.510;19.036;2022-12-31T06:08:59;13.70;;;11.07;;
35324;SDS011;35135;47.510;19.036;2022-12-31T06:11:25;13.57;;;10.05;;
35324;SDS011;35135;47.510;19.036;2022-12-31T06:13:50;13.18;;;10.70;;
35324;SDS011;35135;47.510;19.036;2022-12-31T06:16:16;14.23;;;10.82;;
35324;SDS011;35135;47.510;19.036;2022-12-31T06:18:42;14.70;;;11.60;;
35324;SDS011;35135;47.510;19.036;2022-12-31T06:21:07;14.80;;;11.15;;
35324;SDS011;35135;47.510;19.036;2022-12-31T06:23:33;14.05;;;11.15;;
35324;SDS011;35135;47.510;19.036;2022-12-31T06:26:02;14.77;;;10.98;;
35324;SDS011;35135;47.510;19.036;2022-12-31T06:28:29;14.55;;;11.55;;
35324;SDS011;35135;47.510;19.036;2022-12-31T06:31:04;13.60;;;10.82;;
35324;SDS011;35135;47.510;19.036;2022-12-31T06:33:31;12.90;;;10.20;;
35324;SDS011;35135;47.510;19.036;2022-12-31T06:35:58;13.05;;;10.80;;
35324;SDS011;35135;47.510;19.036;2022-12-31T06:38:26;13.07;;;10.68;;
35324;SDS011;35135;47.510;19.036;2022-12-31T06:40:54;14.63;;;11.73;;
35324;SDS011;35135;47.510;19.036;2022-12-31T06:43:20;13.63;;;10.80;;
35324;SDS011;35135;47.510;19.036;2022-12-31T06:45:46;12.60;;;10.68;;
35324;SDS011;35135;47.510;19.036;2022-12-31T06:48:12;13.77;;;10.77;;
35324;SDS011;35135;47.510;19.036;2022-12-31T06:50:38;14.07;;;10.80;;
35324;SDS011;35135;47.510;19.036;2022-12-31T06:53:04;15.82;;;11.68;;
35324;SDS011;35135;47.510;19.036;2022-12-31T06:55:30;15.73;;;12.57;;
35324;SDS011;35135;47.510;19.036;2022-12-31T06:57:56;14.27;;;10.75;;
35324;SDS011;35135;47.510;19.036;2022-12-31T07:00:22;13.43;;;10.65;;
35324;SDS011;35135;47.510;19.036;2022-12-31T07:05:27;15.43;;;11.00;;
35324;SDS011;35135;47.510;19.036;2022-12-31T07:19:31;14.75;;;11.63;;
35324;SDS011;35135;47.510;19.036;2022-12-31T07:21:54;14.02;;;10.70;;
35324;SDS011;35135;47.510;19.036;2022-12-31T07:24:23;14.48;;;11.68;;
35324;SDS011;35135;47.510;19.036;2022-12-31T07:32:15;14.93;;;11.35;;
35324;SDS011;35135;47.510;19.036;2022-12-31T07:40:31;15.77;;;11.55;;
35324;SDS011;35135;47.510;19.036;2022-12-31T07:43:22;15.45;;;10.95;;
35324;SDS011;35135;47.510;19.036;2022-12-31T07:46:06;15.25;;;11.32;;
35324;SDS011;35135;47.510;19.036;2022-12-31T07:48:54;13.82;;;10.73;;
35324;SDS011;35135;47.510;19.036;2022-12-31T07:51:20;13.65;;;10.75;;
35324;SDS011;35135;47.510;19.036;2022-12-31T07:53:46;13.52;;;10.45;;
35324;SDS011;35135;47.510;19.036;2022-12-31T07:56:12;15.70;;;11.85;;
35324;SDS011;35135;47.510;19.036;2022-12-31T08:01:12;13.85;;;11.65;;
35324;SDS011;35135;47.510;19.036;2022-12-31T08:14:21;13.98;;;11.27;;
35324;SDS011;35135;47.510;19.036;2022-12-31T08:16:47;13.52;;;11.18;;
35324;SDS011;35135;47.510;19.036;2022-12-31T08:22:07;15.77;;;12.15;;
35324;SDS011;35135;47.510;19.036;2022-12-31T08:27:33;16.02;;;12.02;;
35324;SDS011;35135;47.510;19.036;2022-12-31T08:30:06;14.93;;;11.57;;
35324;SDS011;35135;47.510;19.036;2022-12-31T08:32:40;16.75;;;12.63;;
35324;SDS011;35135;47.510;19.036;2022-12-31T08:35:23;13.88;;;11.15;;
35324;SDS011;35135;47.510;19.036;2022-12-31T08:45:46;14.23;;;11.45;;
35324;SDS011;35135;47.510;19.036;2022-12-31T08:48:38;16.23;;;12.30;;
35324;SDS011;35135;47.510;19.036;2022-12-31T08:51:27;14.88;;;11.65;;
35324;SDS011;35135;47.510;19.036;2022-12-31T08:53:52;15.27;;;11.48;;
35324;SDS011;35135;47.510;19.036;2022-12-31T08:56:26;20.42;;;11.70;;
35324;SDS011;35135;47.510;19.036;2022-12-31T08:58:58;17.90;;;12.32;;
35324;SDS011;35135;47.510;19.036;2022-12-31T09:01:49;22.92;;;11.10;;
35324;SDS011;35135;47.510;19.036;2022-12-31T09:07:15;17.30;;;11.00;;
35324;SDS011;35135;47.510;19.036;2022-12-31T09:09:53;22.08;;;14.15;;
35324;SDS011;35135;47.510;19.036;2022-12-31T09:15:39;26.02;;;18.08;;
35324;SDS011;35135;47.510;19.036;2022-12-31T09:20:28;31.42;;;18.88;;
35324;SDS011;35135;47.510;19.036;2022-12-31T09:22:55;24.02;;;18.23;;
35324;SDS011;35135;47.510;19.036;2022-12-31T09:25:23;23.40;;;17.50;;
35324;SDS011;35135;47.510;19.036;2022-12-31T09:27:56;24.35;;;17.70;;
35324;SDS011;35135;47.510;19.036;2022-12-31T09:30:42;27.52;;;17.20;;
35324;SDS011;35135;47.510;19.036;2022-12-31T09:33:41;25.15;;;16.33;;
35324;SDS011;35135;47.510;19.036;2022-12-31T09:36:35;24.75;;;16.98;;
35324;SDS011;35135;47.510;19.036;2022-12-31T10:11:55;21.95;;;16.17;;
35324;SDS011;35135;47.510;19.036;2022-12-31T10:19:39;18.10;;;14.20;;
35324;SDS011;35135;47.510;19.036;2022-12-31T10:28:25;20.73;;;15.68;;
35324;SDS011;35135;47.510;19.036;2022-12-31T10:33:42;17.95;;;14.38;;
35324;SDS011;35135;47.510;19.036;2022-12-31T10:36:24;18.05;;;14.85;;
35324;SDS011;35135;47.510;19.036;2022-12-31T10:42:14;19.95;;;14.52;;
35324;SDS011;35135;47.510;19.036;2022-12-31T11:04:02;18.98;;;14.85;;
35324;SDS011;35135;47.510;19.036;2022-12-31T11:17:44;18.30;;;14.50;;
35324;SDS011;35135;47.510;19.036;2022-12-31T11:25:45;17.83;;;13.77;;
35324;SDS011;35135;47.510;19.036;2022-12-31T11:31:33;17.73;;;13.88;;
35324;SDS011;35135;47.510;19.036;2022-12-31T11:34:24;18.58;;;14.70;;
35324;SDS011;35135;47.510;19.036;2022-12-31T11:39:43;17.92;;;14.35;;
35324;SDS011;35135;47.510;19.036;2022-12-31T11:42:19;16.57;;;13.33;;
35324;SDS011;35135;47.510;19.036;2022-12-31T11:44:51;17.85;;;13.57;;
35324;SDS011;35135;47.510;19.036;2022-12-31T11:50:02;18.30;;;14.68;;
35324;SDS011;35135;47.510;19.036;2022-12-31T11:52:51;16.92;;;13.90;;
35324;SDS011;35135;47.510;19.036;2022-12-31T11:55:25;17.77;;;13.85;;
35324;SDS011;35135;47.510;19.036;2022-12-31T11:58:15;16.63;;;13.65;;
35324;SDS011;35135;47.510;19.036;2022-12-31T12:01:26;16.10;;;14.02;;
35324;SDS011;35135;47.510;19.036;2022-12-31T12:03:57;17.80;;;14.27;;
35324;SDS011;35135;47.510;19.036;2022-12-31T12:06:24;16.60;;;13.80;;
35324;SDS011;35135;47.510;19.036;2022-12-31T12:08:58;16.33;;;13.13;;
35324;SDS011;35135;47.510;19.036;2022-12-31T12:11:29;16.13;;;13.50;;
35324;SDS011;35135;47.510;19.036;2022-12-31T12:13:56;18.25;;;14.30;;
35324;SDS011;35135;47.510;19.036;2022-12-31T12:16:23;17.00;;;13.95;;
35324;SDS011;35135;47.510;19.036;2022-12-31T12:19:00;18.50;;;14.52;;
35324;SDS011;35135;47.510;19.036;2022-12-31T12:21:28;18.42;;;14.70;;
35324;SDS011;35135;47.510;19.036;2022-12-31T12:26:55;17.40;;;14.93;;
35324;SDS011;35135;47.510;19.036;2022-12-31T12:32:00;17.45;;;14.18;;
35324;SDS011;35135;47.510;19.036;2022-12-31T12:34:47;15.68;;;13.77;;
35324;SDS011;35135;47.510;19.036;2022-12-31T12:37:32;18.08;;;14.90;;
35324;SDS011;35135;47.510;19.036;2022-12-31T12:40:00;16.23;;;13.55;;
35324;SDS011;35135;47.510;19.036;2022-12-31T12:42:33;17.48;;;13.52;;
35324;SDS011;35135;47.510;19.036;2022-12-31T12:45:03;15.20;;;13.18;;
35324;SDS011;35135;47.510;19.036;2022-12-31T12:47:31;16.70;;;13.73;;
35324;SDS011;35135;47.510;19.036;2022-12-31T12:49:58;15.77;;;13.07;;
35324;SDS011;35135;47.510;19.036;2022-12-31T13:19:15;15.85;;;14.00;;
35324;SDS011;35135;47.510;19.036;2022-12-31T13:24:40;16.52;;;13.40;;
35324;SDS011;35135;47.510;19.036;2022-12-31T13:29:36;15.75;;;13.23;;
35324;SDS011;35135;47.510;19.036;2022-12-31T13:32:04;18.40;;;15.02;;
35324;SDS011;35135;47.510;19.036;2022-12-31T13:34:34;15.70;;;14.00;;
35324;SDS011;35135;47.510;19.036;2022-12-31T13:37:04;14.98;;;13.00;;
35324;SDS011;35135;47.510;19.036;2022-12-31T13:39:37;15.98;;;13.48;;
35324;SDS011;35135;47.510;19.036;2022-12-31T13:44:59;16.15;;;13.68;;
35324;SDS011;35135;47.510;19.036;2022-12-31T13:47:36;15.65;;;13.43;;
35324;SDS011;35135;47.510;19.036;2022-12-31T13:55:43;15.75;;;13.23;;
35324;SDS011;35135;47.510;19.036;2022-12-31T14:03:55;15.63;;;13.57;;
35324;SDS011;35135;47.510;19.036;2022-12-31T14:09:04;16.17;;;13.85;;
35324;SDS011;35135;47.510;19.036;2022-12-31T14:28:00;15.02;;;13.43;;
35324;SDS011;35135;47.510;19.036;2022-12-31T14:30:29;15.00;;;13.35;;
35324;SDS011;35135;47.510;19.036;2022-12-31T14:41:08;15.38;;;13.45;;
35324;SDS011;35135;47.510;19.036;2022-12-31T14:46:23;15.68;;;14.05;;
